Time;durP1;ratioP1;P1;durP2;ratioP2;P2;SDS_P1;SDS_P2;PMS_P1;PMS_P2;Temp;Humidity;BMP_temperature;BMP_pressure;BME280_temperature;BME280_humidity;BME280_pressure;Samples;Min_cycle;Max_cycle;Signal;HPM_P1;HPM_P2
2022/04/29 00:00:38;;;;;;;12.80;4.28;;;12.40;81.80;;;;;;5062450;28;20439;-69
2022/04/29 00:03:09;;;;;;;15.88;4.80;;;12.30;82.00;;;;;;5065762;28;20407;-69
2022/04/29 00:05:36;;;;;;;12.60;4.20;;;12.30;82.00;;;;;;5059995;28;20411;-68
2022/04/29 00:08:03;;;;;;;10.02;4.07;;;12.30;83.10;;;;;;5067277;28;20409;-70
2022/04/29 00:10:28;;;;;;;12.05;4.43;;;12.30;82.50;;;;;;5063003;28;20439;-69
2022/04/29 00:12:55;;;;;;;11.97;4.77;;;12.30;82.40;;;;;;5061968;28;20848;-69
2022/04/29 00:15:21;;;;;;;13.18;4.50;;;12.30;82.60;;;;;;5064985;28;20777;-69
2022/04/29 00:17:47;;;;;;;11.07;4.65;;;12.20;83.00;;;;;;5067028;28;20407;-68
2022/04/29 00:20:14;;;;;;;12.02;4.43;;;12.20;83.20;;;;;;5064534;28;20415;-69
2022/04/29 00:22:41;;;;;;;15.55;4.70;;;12.20;83.30;;;;;;5068828;28;20447;-69
2022/04/29 00:25:08;;;;;;;11.77;4.70;;;12.20;83.50;;;;;;5069695;28;20486;-69
2022/04/29 00:27:34;;;;;;;15.15;4.80;;;12.20;83.40;;;;;;5070254;28;20439;-69
2022/04/29 00:30:00;;;;;;;9.65;4.50;;;12.20;83.50;;;;;;5068070;28;20411;-71
2022/04/29 00:32:26;;;;;;;11.85;4.72;;;12.20;83.50;;;;;;5069365;28;20411;-68
2022/04/29 00:34:52;;;;;;;13.25;4.80;;;12.20;83.80;;;;;;5068158;28;20465;-67
2022/04/29 00:37:18;;;;;;;11.73;4.80;;;12.20;83.90;;;;;;5052007;28;20813;-68
2022/04/29 00:39:44;;;;;;;12.85;5.22;;;12.20;84.00;;;;;;5068929;28;20536;-69
2022/04/29 00:42:15;;;;;;;12.85;5.10;;;12.20;84.00;;;;;;5066329;28;20499;-69
2022/04/29 00:44:42;;;;;;;12.10;4.70;;;12.20;84.20;;;;;;5068975;28;20740;-69
2022/04/29 00:47:11;;;;;;;12.93;4.50;;;12.20;84.30;;;;;;5049965;28;20822;-67
2022/04/29 00:49:38;;;;;;;15.13;5.40;;;12.20;84.70;;;;;;5069486;28;20453;-69
2022/04/29 00:52:07;;;;;;;10.95;4.88;;;12.10;84.80;;;;;;5068592;28;20414;-68
2022/04/29 00:54:36;;;;;;;12.43;4.70;;;12.10;85.10;;;;;;5066556;28;20428;-71
2022/04/29 00:57:07;;;;;;;12.10;5.20;;;12.10;85.30;;;;;;5065958;28;20408;-69
2022/04/29 01:00:02;;;;;;;14.82;5.35;;;12.10;85.20;;;;;;5068006;28;20407;-69
2022/04/29 01:02:30;;;;;;;11.55;5.22;;;12.10;85.60;;;;;;5049842;28;20415;-70
2022/04/29 01:05:05;;;;;;;11.30;4.87;;;12.10;85.70;;;;;;5048756;28;20417;-70
2022/04/29 01:07:33;;;;;;;16.55;5.32;;;12.10;85.90;;;;;;5070056;28;20392;-70
2022/04/29 01:09:59;;;;;;;14.30;5.22;;;12.10;86.00;;;;;;5068615;28;20497;-69
2022/04/29 01:12:26;;;;;;;13.82;5.50;;;12.10;86.20;;;;;;5067912;28;20430;-70
2022/04/29 01:14:57;;;;;;;14.00;5.43;;;12.00;86.30;;;;;;5067751;28;20418;-70
2022/04/29 01:17:23;;;;;;;13.50;5.35;;;12.00;86.40;;;;;;5066898;28;20472;-70
2022/04/29 01:19:49;;;;;;;14.23;5.30;;;12.10;86.30;;;;;;5068873;28;20399;-69
2022/04/29 01:22:15;;;;;;;11.07;5.20;;;12.10;86.20;;;;;;5066751;28;20481;-69
2022/04/29 01:24:41;;;;;;;12.90;5.15;;;12.10;86.30;;;;;;5068968;28;20400;-69
2022/04/29 01:27:10;;;;;;;15.23;4.90;;;12.10;86.40;;;;;;5067280;28;20416;-68
2022/04/29 01:29:42;;;;;;;14.20;4.90;;;12.10;86.50;;;;;;5067594;28;20420;-69
2022/04/29 01:32:09;;;;;;;14.55;5.28;;;12.10;86.60;;;;;;5066918;28;21128;-71
2022/04/29 01:34:36;;;;;;;12.80;5.10;;;12.10;86.70;;;;;;5068638;28;20469;-69
2022/04/29 01:37:03;;;;;;;12.48;5.10;;;12.10;86.50;;;;;;5066220;28;20404;-69
2022/04/29 01:39:29;;;;;;;14.68;5.10;;;12.10;86.40;;;;;;5066364;28;20410;-70
2022/04/29 01:41:55;;;;;;;14.95;5.13;;;12.00;86.50;;;;;;5066945;28;20466;-66
2022/04/29 01:44:21;;;;;;;11.55;4.80;;;12.00;86.50;;;;;;5067485;28;20400;-70
2022/04/29 01:46:47;;;;;;;11.17;4.70;;;12.10;86.70;;;;;;5064327;28;20773;-66
2022/04/29 01:49:23;;;;;;;16.25;4.80;;;12.00;86.20;;;;;;5050925;28;20415;-68
2022/04/29 01:51:57;;;;;;;17.42;5.25;;;12.10;86.30;;;;;;5067907;28;20408;-68
2022/04/29 01:54:24;;;;;;;13.90;4.70;;;12.10;86.20;;;;;;5066656;28;20461;-67
2022/04/29 01:56:52;;;;;;;11.67;4.23;;;12.10;86.30;;;;;;5067796;28;20404;-67
2022/04/29 01:59:19;;;;;;;13.32;4.68;;;12.10;86.10;;;;;;5063740;28;20407;-66
2022/04/29 02:02:07;;;;;;;11.37;4.80;;;12.20;86.10;;;;;;5066672;28;20446;-67
2022/04/29 02:04:35;;;;;;;12.20;4.93;;;12.20;86.00;;;;;;5065797;28;20411;-70
2022/04/29 02:07:02;;;;;;;14.65;4.70;;;12.20;85.90;;;;;;5067811;28;20410;-66
2022/04/29 02:09:29;;;;;;;14.50;5.15;;;12.20;86.60;;;;;;5066349;28;20880;-66
2022/04/29 02:12:06;;;;;;;15.45;4.88;;;12.10;85.40;;;;;;5065156;28;20426;-68
2022/04/29 02:14:58;;;;;;;18.80;4.68;;;12.20;86.00;;;;;;5065247;28;20478;-67
2022/04/29 02:17:39;;;;;;;13.27;4.82;;;12.10;85.90;;;;;;5065227;28;20962;-69
2022/04/29 02:20:05;;;;;;;14.77;5.15;;;12.10;85.70;;;;;;5066922;28;20400;-68
2022/04/29 02:22:32;;;;;;;15.93;5.43;;;12.10;86.00;;;;;;5067742;28;20496;-68
2022/04/29 02:24:58;;;;;;;12.00;4.82;;;12.10;85.90;;;;;;5066708;28;20411;-68
2022/04/29 02:27:23;;;;;;;15.52;5.32;;;12.10;85.60;;;;;;5065725;28;20820;-67
2022/04/29 02:29:49;;;;;;;12.70;5.30;;;12.10;85.90;;;;;;5066273;28;20447;-67
2022/04/29 02:32:17;;;;;;;15.18;5.38;;;12.10;86.30;;;;;;5066945;28;20506;-66
2022/04/29 02:34:44;;;;;;;11.98;5.53;;;12.10;86.40;;;;;;5064367;28;20424;-68
2022/04/29 02:37:12;;;;;;;15.55;5.30;;;12.10;86.40;;;;;;5065843;28;20483;-67
2022/04/29 02:39:39;;;;;;;14.27;5.30;;;12.20;86.30;;;;;;5066354;28;21252;-67
2022/04/29 02:42:07;;;;;;;14.38;5.53;;;12.10;86.50;;;;;;5067835;28;20453;-68
2022/04/29 02:44:33;;;;;;;12.82;5.20;;;12.10;86.90;;;;;;5063244;28;20448;-68
2022/04/29 02:47:07;;;;;;;17.53;5.63;;;12.10;87.10;;;;;;5064873;28;20447;-66
2022/04/29 02:49:44;;;;;;;15.80;5.72;;;12.10;87.10;;;;;;5065864;28;20423;-68
2022/04/29 02:52:12;;;;;;;15.90;5.80;;;12.10;87.30;;;;;;5066860;28;20803;-68
2022/04/29 02:54:38;;;;;;;15.45;5.85;;;12.00;87.50;;;;;;5063692;28;20481;-65
2022/04/29 02:57:10;;;;;;;16.90;6.63;;;12.00;87.60;;;;;;5065431;28;20471;-67
2022/04/29 02:59:41;;;;;;;17.63;6.50;;;12.00;87.50;;;;;;5065243;28;20391;-66
2022/04/29 03:02:07;;;;;;;15.68;6.13;;;12.00;87.80;;;;;;5064246;28;20473;-66
2022/04/29 03:04:34;;;;;;;13.80;5.63;;;12.00;87.90;;;;;;5065472;28;20802;-66
2022/04/29 03:07:00;;;;;;;16.40;6.22;;;12.10;87.80;;;;;;5067046;28;20403;-64
2022/04/29 03:09:26;;;;;;;17.35;6.53;;;12.00;87.60;;;;;;5062586;28;21095;-66
2022/04/29 03:11:52;;;;;;;14.23;6.20;;;12.00;87.70;;;;;;5065120;28;20506;-66
2022/04/29 03:14:18;;;;;;;14.95;6.10;;;12.00;87.80;;;;;;5064793;28;20415;-66
2022/04/29 03:16:44;;;;;;;13.00;5.57;;;12.00;87.80;;;;;;5067654;28;20424;-68
2022/04/29 03:19:10;;;;;;;20.02;5.95;;;12.00;87.80;;;;;;5063874;28;20408;-67
2022/04/29 03:21:36;;;;;;;13.02;5.35;;;12.00;87.50;;;;;;5067044;28;20406;-66
2022/04/29 03:24:03;;;;;;;14.13;5.90;;;12.00;87.60;;;;;;5047393;28;20399;-65
2022/04/29 03:26:30;;;;;;;16.65;6.05;;;12.00;87.80;;;;;;5066632;28;20431;-68
2022/04/29 03:28:57;;;;;;;15.35;5.60;;;12.00;88.00;;;;;;5048236;28;20407;-67
2022/04/29 03:31:24;;;;;;;14.60;5.28;;;11.90;88.10;;;;;;5064449;28;20501;-65
2022/04/29 03:34:08;;;;;;;13.13;5.00;;;11.90;88.80;;;;;;5064238;28;20961;-66
2022/04/29 03:36:34;;;;;;;15.40;5.27;;;11.90;87.70;;;;;;5068344;28;20411;-67
2022/04/29 03:39:00;;;;;;;16.35;5.75;;;11.90;87.90;;;;;;5061853;28;20874;-66
2022/04/29 03:41:31;;;;;;;13.10;5.82;;;11.90;88.60;;;;;;5065732;28;20742;-67
2022/04/29 03:43:59;;;;;;;16.65;6.10;;;11.90;88.10;;;;;;5064758;28;20416;-69
2022/04/29 03:46:30;;;;;;;12.55;6.10;;;11.90;88.00;;;;;;5067276;28;20457;-70
2022/04/29 03:51:55;;;;;;;19.35;6.63;;;11.80;88.00;;;;;;5064619;28;20613;-68
2022/04/29 03:54:22;;;;;;;16.33;6.10;;;11.80;88.30;;;;;;5063554;28;20408;-69
2022/04/29 03:56:53;;;;;;;18.45;6.20;;;11.80;88.40;;;;;;5066252;28;20444;-69
2022/04/29 03:59:20;;;;;;;15.20;6.68;;;11.80;88.50;;;;;;5063816;28;20402;-68
2022/04/29 04:01:47;;;;;;;14.73;6.13;;;11.80;88.60;;;;;;5065762;28;20421;-67
2022/04/29 04:04:12;;;;;;;14.82;6.47;;;11.80;88.60;;;;;;5062166;28;20434;-68
2022/04/29 04:06:50;;;;;;;18.02;6.90;;;11.70;88.90;;;;;;5064846;28;20955;-69
2022/04/29 04:09:22;;;;;;;15.40;6.70;;;11.70;89.10;;;;;;5065162;28;20407;-68
2022/04/29 04:11:49;;;;;;;13.30;6.30;;;11.80;89.30;;;;;;5064654;28;20419;-69
2022/04/29 04:14:29;;;;;;;16.02;6.47;;;11.70;89.30;;;;;;5064884;28;20415;-69
2022/04/29 04:16:56;;;;;;;15.67;6.50;;;11.70;89.40;;;;;;5048155;28;20400;-67
2022/04/29 04:19:23;;;;;;;16.02;6.03;;;11.70;89.40;;;;;;5063872;28;20486;-68
2022/04/29 04:21:48;;;;;;;15.17;5.80;;;11.70;89.60;;;;;;5064959;28;20502;-71
2022/04/29 04:24:14;;;;;;;15.60;5.70;;;11.70;89.50;;;;;;5060968;28;20451;-70
2022/04/29 04:26:40;;;;;;;17.88;5.80;;;11.70;89.00;;;;;;5062473;28;20403;-69
2022/04/29 04:29:10;;;;;;;13.95;5.78;;;11.70;89.40;;;;;;5046073;28;20498;-67
2022/04/29 04:31:41;;;;;;;11.93;5.20;;;11.70;89.30;;;;;;5079966;28;20411;-68
2022/04/29 04:36:54;;;;;;;14.25;5.45;;;11.70;89.40;;;;;;5062670;28;20421;-70
2022/04/29 04:39:21;;;;;;;15.65;5.60;;;11.70;89.50;;;;;;5065278;28;20393;-70
2022/04/29 04:41:50;;;;;;;14.37;5.30;;;11.70;89.60;;;;;;5065626;28;20409;-70
2022/04/29 04:44:22;;;;;;;14.85;5.50;;;11.70;89.30;;;;;;5048154;28;20792;-68
2022/04/29 04:46:48;;;;;;;18.00;5.32;;;11.70;89.30;;;;;;5063718;28;20421;-70
2022/04/29 04:49:28;;;;;;;15.47;5.20;;;11.70;89.80;;;;;;5064330;28;20772;-69
2022/04/29 04:52:06;;;;;;;13.00;4.97;;;11.70;89.80;;;;;;5060103;28;20423;-69
2022/04/29 04:54:32;;;;;;;17.38;4.97;;;11.80;89.90;;;;;;5064723;28;20453;-68
2022/04/29 04:56:58;;;;;;;11.73;5.20;;;11.70;89.60;;;;;;5047181;28;20774;-66
2022/04/29 04:59:24;;;;;;;10.55;4.82;;;11.80;89.70;;;;;;5047497;28;20478;-67
2022/04/29 05:01:50;;;;;;;13.80;4.80;;;11.80;89.80;;;;;;5050453;28;20471;-66
2022/04/29 05:04:34;;;;;;;13.43;4.60;;;11.80;89.60;;;;;;5067572;28;22192;-67
2022/04/29 05:07:29;;;;;;;15.43;4.93;;;11.80;89.40;;;;;;5064130;28;20404;-67
2022/04/29 05:09:54;;;;;;;13.27;5.27;;;11.80;89.70;;;;;;5060053;28;20768;-67
2022/04/29 05:12:20;;;;;;;12.60;4.60;;;11.90;89.70;;;;;;5067400;28;20520;-68
2022/04/29 05:15:08;;;;;;;13.32;4.65;;;11.90;89.60;;;;;;5068636;28;20406;-66
2022/04/29 05:17:35;;;;;;;13.40;5.55;;;11.90;88.90;;;;;;5066827;28;20435;-70
2022/04/29 05:20:23;;;;;;;16.13;5.30;;;11.90;89.40;;;;;;5062438;28;20415;-68
2022/04/29 05:22:49;;;;;;;13.88;4.63;;;12.00;89.40;;;;;;5065971;28;20404;-67
2022/04/29 05:25:15;;;;;;;14.38;4.85;;;12.00;88.90;;;;;;5068235;28;20407;-67
2022/04/29 05:27:59;;;;;;;16.23;4.70;;;12.10;88.80;;;;;;5067656;28;20550;-64
2022/04/29 05:30:44;;;;;;;15.05;4.50;;;12.00;88.90;;;;;;5065265;28;20488;-66
2022/04/29 05:33:22;;;;;;;15.00;4.35;;;12.10;88.80;;;;;;5067100;28;20454;-68
2022/04/29 05:36:09;;;;;;;13.48;4.80;;;12.10;88.50;;;;;;5068797;28;20438;-68
2022/04/29 05:44:08;;;;;;;16.42;5.00;;;12.20;88.40;;;;;;5064886;28;20493;-69
2022/04/29 05:46:35;;;;;;;14.27;4.15;;;12.30;88.20;;;;;;5069647;28;20493;-68
2022/04/29 05:49:03;;;;;;;14.27;4.90;;;12.30;87.90;;;;;;5049805;28;20907;-68
2022/04/29 05:51:30;;;;;;;15.68;4.80;;;12.30;87.50;;;;;;5066225;28;20498;-67
2022/04/29 05:53:56;;;;;;;13.30;4.43;;;12.30;87.40;;;;;;5064574;28;21042;-68
2022/04/29 05:56:21;;;;;;;15.03;4.83;;;12.40;87.00;;;;;;5068627;28;20490;-67
2022/04/29 05:58:47;;;;;;;13.10;4.90;;;12.40;87.30;;;;;;5066260;28;20418;-68
2022/04/29 06:01:31;;;;;;;15.57;4.63;;;12.50;86.50;;;;;;5066608;28;20827;-67
2022/04/29 06:03:57;;;;;;;11.70;4.70;;;12.50;86.40;;;;;;5047200;28;20411;-67
2022/04/29 06:06:23;;;;;;;12.87;4.80;;;12.60;86.20;;;;;;5060327;28;20403;-65
2022/04/29 06:08:48;;;;;;;12.88;5.00;;;12.60;86.30;;;;;;5050152;28;20407;-65
2022/04/29 06:11:14;;;;;;;12.15;5.13;;;12.60;86.40;;;;;;5062261;28;20476;-66
2022/04/29 06:13:40;;;;;;;16.90;4.90;;;12.70;85.70;;;;;;5066410;28;21177;-69
2022/04/29 06:16:26;;;;;;;11.95;4.22;;;12.70;85.80;;;;;;5060136;28;20415;-66
2022/04/29 06:19:21;;;;;;;13.13;4.63;;;12.80;85.60;;;;;;5065225;28;20491;-68
2022/04/29 06:22:09;;;;;;;11.15;3.90;;;12.80;85.10;;;;;;5067579;28;20868;-67
2022/04/29 06:24:40;;;;;;;12.93;4.90;;;12.90;84.80;;;;;;5064933;28;22085;-67
2022/04/29 06:27:07;;;;;;;12.30;4.80;;;12.90;84.70;;;;;;5065639;28;20399;-66
2022/04/29 06:29:33;;;;;;;12.63;5.23;;;13.00;84.10;;;;;;5063382;28;20430;-66
2022/04/29 06:31:59;;;;;;;12.23;4.78;;;13.00;85.40;;;;;;5066659;28;20423;-67
2022/04/29 06:34:43;;;;;;;14.57;5.25;;;13.00;84.70;;;;;;5063926;28;20515;-64
2022/04/29 06:37:10;;;;;;;14.07;4.43;;;13.00;84.40;;;;;;5065598;28;20490;-67
2022/04/29 06:39:38;;;;;;;9.20;4.17;;;13.10;83.40;;;;;;5063053;28;20403;-67
2022/04/29 06:42:24;;;;;;;12.43;4.30;;;13.10;83.00;;;;;;5066017;28;20459;-66
2022/04/29 06:45:22;;;;;;;12.00;4.70;;;13.10;82.50;;;;;;5062022;28;20455;-65
2022/04/29 06:48:03;;;;;;;13.30;4.60;;;13.10;81.90;;;;;;5064989;28;20404;-67
2022/04/29 06:51:00;;;;;;;13.33;4.00;;;13.00;81.90;;;;;;5064152;28;20490;-67
2022/04/29 06:53:58;;;;;;;11.23;3.90;;;13.00;81.30;;;;;;5064281;28;20412;-67
2022/04/29 06:56:31;;;;;;;14.63;4.45;;;12.90;80.50;;;;;;5064492;28;20483;-68
2022/04/29 06:58:57;;;;;;;13.68;4.20;;;13.00;81.00;;;;;;5065503;28;21010;-67
2022/04/29 07:01:26;;;;;;;12.15;4.40;;;12.90;80.90;;;;;;5045881;28;20415;-67
2022/04/29 07:03:52;;;;;;;9.52;3.92;;;12.90;81.30;;;;;;5062197;28;20403;-67
2022/04/29 07:06:18;;;;;;;12.98;4.30;;;12.90;81.30;;;;;;5041594;28;20404;-67
2022/04/29 07:08:44;;;;;;;11.20;4.22;;;12.90;81.40;;;;;;5061533;28;21002;-67
2022/04/29 07:11:29;;;;;;;12.95;4.32;;;12.90;81.30;;;;;;5062515;28;20514;-67
2022/04/29 07:14:15;;;;;;;8.50;3.90;;;12.90;81.50;;;;;;5065648;28;20400;-68
2022/04/29 07:17:02;;;;;;;14.38;4.50;;;13.00;80.90;;;;;;5065292;28;20434;-67
2022/04/29 07:19:39;;;;;;;12.07;4.10;;;13.00;80.50;;;;;;5058747;28;20523;-67
2022/04/29 07:22:06;;;;;;;7.57;3.80;;;13.00;80.20;;;;;;5065639;28;20806;-67
2022/04/29 07:24:35;;;;;;;11.77;4.20;;;13.00;80.40;;;;;;5063535;28;20421;-67
2022/04/29 07:27:03;;;;;;;11.43;4.10;;;13.00;79.70;;;;;;5066027;28;20730;-68
2022/04/29 07:29:30;;;;;;;11.10;3.97;;;13.00;79.60;;;;;;5062990;28;20440;-65
2022/04/29 07:32:00;;;;;;;11.77;4.00;;;13.00;79.50;;;;;;5062585;28;20446;-66
2022/04/29 07:43:38;;;;;;;14.07;4.57;;;13.10;80.30;;;;;;5065258;28;20396;-66
2022/04/29 07:46:04;;;;;;;12.87;4.80;;;13.10;80.20;;;;;;5064468;28;20544;-68
2022/04/29 07:48:30;;;;;;;12.90;4.35;;;13.10;80.50;;;;;;5066791;28;20411;-66
2022/04/29 07:50:59;;;;;;;11.97;4.67;;;13.20;80.00;;;;;;5047142;28;20407;-64
2022/04/29 07:53:25;;;;;;;13.35;4.20;;;13.30;80.20;;;;;;5062843;28;20443;-67
2022/04/29 07:55:52;;;;;;;11.90;4.20;;;13.40;79.70;;;;;;5065762;28;20443;-66
2022/04/29 07:58:18;;;;;;;13.05;4.10;;;13.50;79.50;;;;;;5048730;28;20413;-66
2022/04/29 08:00:44;;;;;;;8.63;3.70;;;13.50;79.20;;;;;;5060724;28;20837;-66
2022/04/29 08:03:10;;;;;;;8.13;4.03;;;13.60;78.00;;;;;;5062266;28;20416;-66
2022/04/29 08:06:08;;;;;;;8.60;3.60;;;13.70;78.00;;;;;;5067838;28;20526;-67
2022/04/29 08:08:37;;;;;;;11.60;4.20;;;13.70;77.80;;;;;;5065017;28;20487;-66
2022/04/29 08:11:05;;;;;;;11.65;3.83;;;13.80;77.50;;;;;;5063687;28;20403;-67
2022/04/29 08:13:39;;;;;;;6.93;3.50;;;13.90;77.50;;;;;;5063534;28;20840;-65
2022/04/29 08:16:36;;;;;;;9.90;3.78;;;14.00;76.80;;;;;;5064070;28;20434;-68
2022/04/29 08:19:20;;;;;;;11.73;4.20;;;14.00;76.30;;;;;;5063570;28;20480;-66
2022/04/29 08:22:03;;;;;;;9.55;4.05;;;14.00;76.10;;;;;;5065336;28;20893;-67
2022/04/29 08:24:30;;;;;;;10.15;4.00;;;14.10;76.70;;;;;;5063580;28;20874;-65
2022/04/29 08:26:55;;;;;;;10.05;3.55;;;14.10;76.10;;;;;;5065697;28;20460;-67
2022/04/29 08:29:21;;;;;;;12.02;3.60;;;14.10;75.30;;;;;;5064118;28;20411;-67
2022/04/29 08:31:48;;;;;;;13.17;3.93;;;14.10;75.30;;;;;;5065340;28;20412;-68
2022/04/29 08:34:17;;;;;;;9.23;3.38;;;14.10;75.20;;;;;;5065615;28;20896;-66
2022/04/29 08:36:44;;;;;;;7.88;3.30;;;14.10;75.00;;;;;;5064952;28;20403;-66
2022/04/29 08:39:09;;;;;;;7.78;3.40;;;14.00;74.40;;;;;;5061212;28;20407;-66
2022/04/29 08:41:38;;;;;;;12.70;3.50;;;14.00;74.50;;;;;;5065919;28;20857;-67
2022/04/29 08:44:09;;;;;;;7.13;3.03;;;13.90;74.80;;;;;;5068279;28;20407;-68
2022/04/29 08:46:58;;;;;;;8.43;3.38;;;13.90;75.00;;;;;;5069144;28;20628;-65
2022/04/29 08:49:34;;;;;;;10.20;3.78;;;13.80;75.10;;;;;;5066609;28;20772;-65
2022/04/29 08:52:01;;;;;;;8.68;3.67;;;13.80;75.50;;;;;;5063166;28;20901;-66
2022/04/29 09:00:04;;;;;;;10.90;3.50;;;13.70;76.40;;;;;;5065469;28;20415;-66
2022/04/29 09:02:38;;;;;;;9.57;3.60;;;13.70;76.20;;;;;;5068019;28;20822;-67
2022/04/29 09:05:10;;;;;;;8.45;3.50;;;13.80;76.30;;;;;;5064840;28;20425;-67
2022/04/29 09:07:55;;;;;;;10.63;4.18;;;13.90;76.40;;;;;;5051864;28;20912;-65
2022/04/29 09:10:23;;;;;;;9.50;3.92;;;13.90;76.90;;;;;;5067522;28;21227;-67
2022/04/29 09:12:48;;;;;;;8.18;3.50;;;14.00;77.20;;;;;;5070135;28;20467;-67
2022/04/29 09:15:16;;;;;;;10.25;4.07;;;14.00;76.60;;;;;;5066779;28;20491;-66
2022/04/29 09:17:49;;;;;;;10.77;3.77;;;14.10;76.10;;;;;;5066001;28;20414;-65
2022/04/29 09:20:22;;;;;;;8.82;3.97;;;14.20;75.90;;;;;;5066809;28;20537;-65
2022/04/29 09:22:52;;;;;;;8.57;3.90;;;14.20;75.70;;;;;;5066674;28;20957;-66
2022/04/29 09:25:59;;;;;;;11.82;4.50;;;14.30;75.50;;;;;;5085325;28;20504;-67
2022/04/29 09:29:13;;;;;;;11.88;4.22;;;14.40;75.20;;;;;;5067359;28;20489;-64
2022/04/29 09:32:01;;;;;;;7.03;4.15;;;14.40;74.60;;;;;;5064743;28;20788;-66
2022/04/29 09:34:53;;;;;;;9.43;3.90;;;14.40;74.60;;;;;;5067822;28;20416;-68
2022/04/29 09:37:20;;;;;;;9.85;4.15;;;14.30;74.30;;;;;;5064923;28;20468;-67
2022/04/29 09:40:00;;;;;;;10.32;4.63;;;14.30;74.00;;;;;;5067594;28;20403;-67
2022/04/29 09:42:40;;;;;;;11.67;4.37;;;14.30;73.80;;;;;;5065097;28;20411;-66
2022/04/29 09:45:12;;;;;;;10.60;4.40;;;14.20;73.50;;;;;;5065973;28;20415;-65
2022/04/29 09:47:38;;;;;;;9.53;4.40;;;14.10;73.50;;;;;;5068140;28;20419;-64
2022/04/29 09:50:05;;;;;;;9.55;4.63;;;14.10;73.90;;;;;;5065952;28;20564;-67
2022/04/29 09:52:31;;;;;;;10.52;4.68;;;14.10;74.00;;;;;;5067437;28;20462;-63
2022/04/29 09:55:28;;;;;;;9.55;4.45;;;14.10;73.90;;;;;;5067054;28;20411;-67
2022/04/29 09:58:01;;;;;;;8.23;4.50;;;14.10;73.60;;;;;;5041970;28;20476;-65
2022/04/29 10:00:27;;;;;;;8.63;3.70;;;14.20;73.40;;;;;;5061855;28;20768;-66
2022/04/29 10:02:53;;;;;;;7.13;3.70;;;14.20;72.50;;;;;;5068056;28;20416;-66
2022/04/29 10:05:23;;;;;;;10.30;4.13;;;14.40;72.30;;;;;;5060122;28;20411;-66
2022/04/29 10:07:59;;;;;;;8.13;3.67;;;14.50;71.80;;;;;;5067811;28;20411;-68
2022/04/29 10:10:30;;;;;;;7.10;3.50;;;14.70;70.90;;;;;;5066638;28;20443;-66
2022/04/29 10:12:56;;;;;;;7.47;3.42;;;14.80;70.10;;;;;;5067608;28;20919;-66
2022/04/29 10:15:42;;;;;;;7.55;3.00;;;14.80;69.40;;;;;;5065615;28;20415;-66
2022/04/29 10:22:03;;;;;;;11.82;3.65;;;15.00;68.00;;;;;;5065209;28;20404;-66
2022/04/29 10:24:29;;;;;;;8.43;3.70;;;15.20;68.20;;;;;;5066178;28;20523;-67
2022/04/29 10:26:57;;;;;;;8.65;3.88;;;15.40;67.60;;;;;;5066357;28;20411;-67
2022/04/29 10:29:23;;;;;;;7.47;3.47;;;15.50;67.10;;;;;;5064488;28;20415;-67
2022/04/29 10:32:09;;;;;;;6.78;3.67;;;15.70;66.40;;;;;;5065055;28;20455;-65
2022/04/29 10:34:35;;;;;;;8.18;4.05;;;15.80;66.00;;;;;;5065831;28;20412;-64
2022/04/29 10:37:13;;;;;;;8.52;3.97;;;15.90;65.70;;;;;;5064298;28;20407;-66
2022/04/29 10:39:40;;;;;;;9.32;3.90;;;16.00;65.30;;;;;;5065834;28;20516;-66
2022/04/29 10:42:10;;;;;;;7.43;3.97;;;16.00;65.40;;;;;;5068416;28;20880;-67
2022/04/29 10:45:00;;;;;;;6.57;4.00;;;16.10;65.20;;;;;;5065487;28;20422;-65
2022/04/29 10:47:40;;;;;;;8.23;3.90;;;16.40;64.40;;;;;;5066303;28;20473;-66
2022/04/29 10:50:29;;;;;;;8.52;4.03;;;16.60;63.60;;;;;;5064945;28;20760;-66
2022/04/29 10:53:13;;;;;;;8.30;4.20;;;16.80;62.40;;;;;;5066211;28;20584;-65
2022/04/29 10:55:38;;;;;;;10.02;4.00;;;17.00;61.70;;;;;;5065636;28;20568;-65
2022/04/29 10:58:26;;;;;;;9.00;4.22;;;17.10;61.10;;;;;;5068067;28;20441;-65
2022/04/29 11:01:16;;;;;;;9.00;4.30;;;17.20;60.40;;;;;;5065459;28;20449;-65
2022/04/29 11:03:45;;;;;;;6.88;4.40;;;17.10;60.20;;;;;;5061542;28;20430;-66
2022/04/29 11:06:12;;;;;;;8.98;3.92;;;17.00;60.90;;;;;;5064253;28;20439;-67
2022/04/29 11:08:39;;;;;;;10.75;4.68;;;16.90;61.30;;;;;;5062443;28;20448;-67
2022/04/29 11:11:05;;;;;;;7.70;4.17;;;16.90;60.60;;;;;;5065759;28;20422;-65
2022/04/29 11:13:58;;;;;;;10.47;4.50;;;16.90;61.40;;;;;;5066080;28;20403;-66
2022/04/29 11:17:06;;;;;;;8.30;4.47;;;17.00;60.90;;;;;;5063773;28;20387;-65
2022/04/29 11:19:47;;;;;;;8.82;4.75;;;16.90;60.90;;;;;;5063781;28;20425;-66
2022/04/29 11:25:05;;;;;;;8.48;4.70;;;16.70;61.50;;;;;;5062622;28;20410;-66
2022/04/29 11:27:41;;;;;;;8.80;4.90;;;16.80;61.50;;;;;;5066018;28;20928;-66
2022/04/29 11:30:18;;;;;;;10.02;4.90;;;16.80;61.50;;;;;;5064227;28;20438;-66
2022/04/29 11:32:47;;;;;;;7.70;4.93;;;16.80;61.80;;;;;;5066267;28;20419;-66
2022/04/29 11:35:13;;;;;;;10.60;4.50;;;16.80;61.30;;;;;;5062578;28;20515;-64
2022/04/29 11:37:39;;;;;;;7.53;4.10;;;16.80;61.70;;;;;;5066081;28;20494;-66
2022/04/29 11:40:07;;;;;;;8.73;4.50;;;16.80;61.80;;;;;;5066063;28;20423;-66
2022/04/29 11:42:33;;;;;;;9.05;4.85;;;16.80;61.90;;;;;;5065665;28;20482;-65
2022/04/29 11:45:07;;;;;;;8.30;4.20;;;16.90;61.20;;;;;;5065537;28;20465;-66
2022/04/29 11:47:33;;;;;;;7.22;4.70;;;17.00;60.70;;;;;;5048235;28;20461;-66
2022/04/29 11:50:01;;;;;;;8.07;4.40;;;17.20;59.80;;;;;;5063108;28;20447;-65
2022/04/29 11:52:33;;;;;;;9.60;4.78;;;17.30;59.40;;;;;;5065836;28;20420;-68
2022/04/29 11:55:02;;;;;;;8.73;4.68;;;17.40;59.40;;;;;;5065564;28;20411;-66
2022/04/29 11:57:30;;;;;;;9.68;4.82;;;17.40;59.90;;;;;;5065625;28;20912;-66
2022/04/29 11:59:56;;;;;;;9.43;4.60;;;17.50;58.90;;;;;;5062272;28;20414;-67
2022/04/29 12:02:24;;;;;;;9.50;4.43;;;17.70;58.50;;;;;;5064552;28;20453;-68
2022/04/29 12:05:05;;;;;;;11.50;4.20;;;17.90;57.80;;;;;;5062164;28;21011;-68
2022/04/29 12:07:42;;;;;;;10.80;4.00;;;18.20;57.10;;;;;;5065369;28;20454;-68
2022/04/29 12:10:22;;;;;;;8.88;3.65;;;18.30;56.50;;;;;;5061119;28;21089;-67
2022/04/29 12:12:48;;;;;;;8.63;4.20;;;18.30;56.10;;;;;;5065351;28;20553;-68
2022/04/29 12:15:19;;;;;;;6.88;4.13;;;18.30;55.80;;;;;;5048429;28;20981;-68
2022/04/29 12:17:47;;;;;;;9.13;4.35;;;18.30;55.70;;;;;;5070065;28;20541;-69
2022/04/29 12:20:18;;;;;;;8.25;4.10;;;18.20;55.40;;;;;;5066089;28;20407;-69
2022/04/29 12:22:47;;;;;;;6.28;3.80;;;18.10;55.60;;;;;;5067552;28;20426;-68
2022/04/29 12:25:42;;;;;;;8.13;3.70;;;18.10;55.80;;;;;;5068025;28;20410;-69
2022/04/29 12:28:27;;;;;;;8.57;4.20;;;18.00;56.00;;;;;;5069487;28;20418;-68
2022/04/29 12:36:31;;;;;;;8.52;4.22;;;17.70;57.30;;;;;;5068353;28;20399;-67
2022/04/29 12:39:05;;;;;;;9.50;4.15;;;17.60;57.20;;;;;;5067596;28;20931;-69
2022/04/29 12:41:31;;;;;;;9.48;4.07;;;17.60;57.80;;;;;;5066734;28;20411;-65
2022/04/29 12:45:03;;;;;;;10.20;4.78;;;17.60;58.10;;;;;;5068391;28;20407;-67
2022/04/29 12:47:01;;;;;;;8.65;4.57;;;17.60;57.90;;;;;;5068816;28;20396;-67
2022/04/29 12:49:27;;;;;;;11.17;4.90;;;17.50;58.10;;;;;;5066894;28;20403;-67
2022/04/29 12:52:01;;;;;;;8.07;4.40;;;17.50;57.90;;;;;;5071330;28;20480;-68
2022/04/29 12:54:27;;;;;;;9.77;5.43;;;17.10;59.20;;;;;;5065314;28;20234;-67
2022/04/29 12:56:53;;;;;;;7.82;5.00;;;16.70;60.00;;;;;;5072474;28;20227;-67
2022/04/29 12:59:24;;;;;;;12.73;5.75;;;16.50;60.80;;;;;;5069746;28;20188;-68
2022/04/29 13:01:50;;;;;;;11.73;5.78;;;16.30;61.30;;;;;;5072020;28;20190;-68
2022/04/29 13:04:29;;;;;;;9.07;5.32;;;16.20;61.90;;;;;;5068625;28;20235;-68
2022/04/29 13:07:03;;;;;;;8.38;5.68;;;16.00;62.00;;;;;;5070443;28;20185;-68
2022/04/29 13:09:30;;;;;;;10.90;5.32;;;15.90;62.30;;;;;;5063735;28;20214;-68
2022/04/29 13:11:55;;;;;;;11.45;5.60;;;15.90;62.70;;;;;;5068759;28;20422;-67
2022/04/29 13:14:37;;;;;;;8.20;4.75;;;16.30;61.30;;;;;;5064198;28;20178;-66
2022/04/29 13:17:03;;;;;;;10.68;4.97;;;16.00;62.10;;;;;;5069549;28;20182;-68
2022/04/29 13:19:29;;;;;;;11.88;5.65;;;15.80;62.70;;;;;;5068316;28;20273;-67
2022/04/29 13:21:55;;;;;;;9.85;5.40;;;15.70;63.10;;;;;;5068208;28;20278;-67
2022/04/29 13:24:22;;;;;;;11.32;5.85;;;15.60;63.70;;;;;;5064901;28;20182;-67
2022/04/29 13:26:51;;;;;;;7.05;4.97;;;15.50;63.90;;;;;;5066792;28;20194;-67
2022/04/29 13:29:17;;;;;;;9.75;5.82;;;15.50;64.10;;;;;;5068935;28;20468;-67
2022/04/29 13:31:42;;;;;;;9.07;5.50;;;16.00;62.60;;;;;;5066329;28;20420;-68
2022/04/29 13:34:08;;;;;;;13.63;5.60;;;16.40;61.90;;;;;;5067085;28;20404;-68
2022/04/29 13:36:34;;;;;;;7.00;5.00;;;16.50;61.10;;;;;;5067614;28;20423;-68
2022/04/29 13:38:59;;;;;;;7.83;5.00;;;16.70;60.50;;;;;;5067243;28;20419;-69
2022/04/29 13:41:31;;;;;;;9.70;5.40;;;16.80;60.30;;;;;;5064936;28;20921;-68